sensor_id;sensor_type;location;lat;lon;timestamp;pressure;altitude;pressure_sealevel;temperature;humidity
77279;BME280;66332;50.436;15.378;2023-02-15T05:04:15;99820.59;;;1.30;79.37
77279;BME280;66332;50.436;15.378;2023-02-15T05:08:56;99814.84;;;1.25;79.25
77279;BME280;66332;50.436;15.378;2023-02-15T05:13:39;99806.66;;;1.33;81.40
77279;BME280;66332;50.436;15.378;2023-02-15T05:18:21;99795.53;;;1.31;79.64
77279;BME280;66332;50.436;15.378;2023-02-15T05:23:02;99811.50;;;1.39;78.51
77279;BME280;66332;50.436;15.378;2023-02-15T05:27:43;99797.75;;;1.21;79.19
77279;BME280;66332;50.436;15.378;2023-02-15T05:32:42;99806.66;;;1.49;77.36
77279;BME280;66332;50.436;15.378;2023-02-15T05:37:23;99812.50;;;1.36;78.99
77279;BME280;66332;50.436;15.378;2023-02-15T05:42:04;99816.78;;;1.37;79.30
77279;BME280;66332;50.436;15.378;2023-02-15T05:46:45;99816.94;;;1.34;78.75
77279;BME280;66332;50.436;15.378;2023-02-15T05:51:26;99808.91;;;1.39;78.39
77279;BME280;66332;50.436;15.378;2023-02-15T05:56:09;99826.16;;;1.40;78.86
77279;BME280;66332;50.436;15.378;2023-02-15T06:00:50;99821.88;;;1.39;78.96
77279;BME280;66332;50.436;15.378;2023-02-15T06:05:31;99834.16;;;1.35;78.99
77279;BME280;66332;50.436;15.378;2023-02-15T06:10:13;99831.56;;;1.35;79.35
77279;BME280;66332;50.436;15.378;2023-02-15T06:14:56;99831.44;;;1.21;78.62
77279;BME280;66332;50.436;15.378;2023-02-15T06:19:37;99806.13;;;1.10;78.23
77279;BME280;66332;50.436;15.378;2023-02-15T06:24:18;99839.31;;;1.20;79.21
77279;BME280;66332;50.436;15.378;2023-02-15T06:28:59;99820.03;;;1.25;77.82
77279;BME280;66332;50.436;15.378;2023-02-15T06:33:39;99833.81;;;1.26;79.29
77279;BME280;66332;50.436;15.378;2023-02-15T06:38:20;99842.91;;;1.33;77.98
77279;BME280;66332;50.436;15.378;2023-02-15T06:43:01;99833.00;;;1.41;78.60
77279;BME280;66332;50.436;15.378;2023-02-15T06:47:42;99842.19;;;1.31;77.81
77279;BME280;66332;50.436;15.378;2023-02-15T06:52:23;99835.09;;;1.34;77.88
77279;BME280;66332;50.436;15.378;2023-02-15T06:57:04;99832.84;;;1.11;78.60
77279;BME280;66332;50.436;15.378;2023-02-15T07:01:45;99836.72;;;1.20;78.55
77279;BME280;66332;50.436;15.378;2023-02-15T07:06:26;99826.75;;;1.12;78.79
77279;BME280;66332;50.436;15.378;2023-02-15T07:11:07;99834.25;;;1.34;78.15
77279;BME280;66332;50.436;15.378;2023-02-15T07:16:06;99852.97;;;1.39;78.20
77279;BME280;66332;50.436;15.378;2023-02-15T07:20:47;99843.38;;;1.41;78.25
77279;BME280;66332;50.436;15.378;2023-02-15T07:25:28;99832.03;;;1.10;79.29
77279;BME280;66332;50.436;15.378;2023-02-15T07:30:11;99870.19;;;1.07;79.26
77279;BME280;66332;50.436;15.378;2023-02-15T07:34:52;99837.19;;;1.10;78.93
77279;BME280;66332;50.436;15.378;2023-02-15T07:39:33;99847.00;;;1.21;78.33
77279;BME280;66332;50.436;15.378;2023-02-15T07:44:16;99840.75;;;0.92;79.15
77279;BME280;66332;50.436;15.378;2023-02-15T07:48:57;99839.03;;;1.08;78.85
77279;BME280;66332;50.436;15.378;2023-02-15T07:53:38;99842.81;;;1.19;79.65
77279;BME280;66332;50.436;15.378;2023-02-15T07:58:19;99841.91;;;1.20;79.17
77279;BME280;66332;50.436;15.378;2023-02-15T08:03:00;99817.47;;;1.08;79.25
77279;BME280;66332;50.436;15.378;2023-02-15T08:07:56;99821.22;;;1.02;79.89
77279;BME280;66332;50.436;15.378;2023-02-15T08:12:37;99826.84;;;1.10;79.97
77279;BME280;66332;50.436;15.378;2023-02-15T08:17:17;99815.53;;;0.96;79.25
77279;BME280;66332;50.436;15.378;2023-02-15T08:22:00;99827.50;;;1.14;79.51
77279;BME280;66332;50.436;15.378;2023-02-15T08:26:42;99818.59;;;1.20;78.69
77279;BME280;66332;50.436;15.378;2023-02-15T08:31:23;99812.47;;;0.87;79.58
77279;BME280;66332;50.436;15.378;2023-02-15T08:40:45;99818.94;;;0.96;79.44
77279;BME280;66332;50.436;15.378;2023-02-15T08:45:26;99798.84;;;1.01;79.24
77279;BME280;66332;50.436;15.378;2023-02-15T08:50:07;99807.72;;;1.13;78.67
77279;BME280;66332;50.436;15.378;2023-02-15T08:54:48;99807.47;;;1.18;78.22
77279;BME280;66332;50.436;15.378;2023-02-15T08:59:29;99798.38;;;1.26;77.94
77279;BME280;66332;50.436;15.378;2023-02-15T09:04:10;99796.78;;;1.24;78.29
77279;BME280;66332;50.436;15.378;2023-02-15T09:08:53;99799.84;;;1.14;78.12
77279;BME280;66332;50.436;15.378;2023-02-15T09:13:35;99804.88;;;1.33;77.75
77279;BME280;66332;50.436;15.378;2023-02-15T09:18:16;99786.09;;;0.97;79.16
77279;BME280;66332;50.436;15.378;2023-02-15T09:22:57;99793.69;;;1.17;78.16
77279;BME280;66332;50.436;15.378;2023-02-15T09:27:38;99786.41;;;1.40;76.91
77279;BME280;66332;50.436;15.378;2023-02-15T09:32:20;99792.78;;;1.34;77.07
77279;BME280;66332;50.436;15.378;2023-02-15T09:37:04;99796.88;;;1.38;77.94
77279;BME280;66332;50.436;15.378;2023-02-15T09:42:09;99794.13;;;1.41;77.63
77279;BME280;66332;50.436;15.378;2023-02-15T09:51:57;99775.72;;;1.30;76.72
77279;BME280;66332;50.436;15.378;2023-02-15T09:56:50;99785.09;;;1.32;76.42
77279;BME280;66332;50.436;15.378;2023-02-15T10:01:42;99783.50;;;1.30;77.41
77279;BME280;66332;50.436;15.378;2023-02-15T10:16:38;99782.66;;;1.29;78.02
77279;BME280;66332;50.436;15.378;2023-02-15T10:26:22;99784.47;;;1.27;77.31
77279;BME280;66332;50.436;15.378;2023-02-15T10:31:25;99780.41;;;1.55;76.75
77279;BME280;66332;50.436;15.378;2023-02-15T10:56:38;99771.56;;;1.59;75.35
77279;BME280;66332;50.436;15.378;2023-02-15T11:01:35;99762.94;;;1.43;76.55
77279;BME280;66332;50.436;15.378;2023-02-15T11:06:20;99752.66;;;1.41;77.08
77279;BME280;66332;50.436;15.378;2023-02-15T11:11:05;99741.63;;;1.37;75.77
77279;BME280;66332;50.436;15.378;2023-02-15T11:15:53;99737.44;;;1.51;75.84
77279;BME280;66332;50.436;15.378;2023-02-15T11:25:32;99739.78;;;1.40;76.33
77279;BME280;66332;50.436;15.378;2023-02-15T11:30:19;99712.47;;;1.34;75.73
77279;BME280;66332;50.436;15.378;2023-02-15T11:35:10;99732.00;;;1.55;75.75
77279;BME280;66332;50.436;15.378;2023-02-15T11:39:55;99736.69;;;1.01;77.34
77279;BME280;66332;50.436;15.378;2023-02-15T11:45:45;99732.28;;;1.19;76.53
77279;BME280;66332;50.436;15.378;2023-02-15T11:49:54;99719.31;;;1.35;76.90
77279;BME280;66332;50.436;15.378;2023-02-15T11:54:39;99725.41;;;1.50;77.02
77279;BME280;66332;50.436;15.378;2023-02-15T11:59:29;99713.50;;;1.77;75.31
77279;BME280;66332;50.436;15.378;2023-02-15T12:04:38;99712.25;;;1.99;74.76
77279;BME280;66332;50.436;15.378;2023-02-15T12:14:22;99693.66;;;1.46;75.87
77279;BME280;66332;50.436;15.378;2023-02-15T12:19:03;99692.28;;;1.55;76.77
77279;BME280;66332;50.436;15.378;2023-02-15T12:23:50;99691.28;;;1.88;74.66
77279;BME280;66332;50.436;15.378;2023-02-15T12:28:41;99672.44;;;1.70;75.07
77279;BME280;66332;50.436;15.378;2023-02-15T12:42:51;99664.28;;;1.62;75.49
77279;BME280;66332;50.436;15.378;2023-02-15T12:47:32;99655.88;;;1.72;75.26
77279;BME280;66332;50.436;15.378;2023-02-15T12:57:25;99655.97;;;1.55;75.77
77279;BME280;66332;50.436;15.378;2023-02-15T13:02:16;99653.06;;;1.45;76.28
77279;BME280;66332;50.436;15.378;2023-02-15T13:07:04;99644.09;;;1.67;75.07
77279;BME280;66332;50.436;15.378;2023-02-15T13:11:53;99651.69;;;1.70;75.13
77279;BME280;66332;50.436;15.378;2023-02-15T13:16:37;99645.06;;;1.50;75.67
77279;BME280;66332;50.436;15.378;2023-02-15T13:21:21;99655.91;;;1.56;75.52
77279;BME280;66332;50.436;15.378;2023-02-15T13:26:11;99649.38;;;1.65;74.92
77279;BME280;66332;50.436;15.378;2023-02-15T13:30:55;99653.16;;;1.59;75.32
77279;BME280;66332;50.436;15.378;2023-02-15T13:36:05;99647.41;;;1.38;76.18
77279;BME280;66332;50.436;15.378;2023-02-15T13:40:55;99644.25;;;1.64;75.44
77279;BME280;66332;50.436;15.378;2023-02-15T13:56:23;99649.72;;;1.59;76.25
77279;BME280;66332;50.436;15.378;2023-02-15T14:11:26;99639.53;;;1.56;76.81
77279;BME280;66332;50.436;15.378;2023-02-15T14:26:08;99624.50;;;1.47;76.62
77279;BME280;66332;50.436;15.378;2023-02-15T14:30:50;99623.03;;;1.27;77.92
77279;BME280;66332;50.436;15.378;2023-02-15T14:35:31;99573.94;;;0.78;78.67
77279;BME280;66332;50.436;15.378;2023-02-15T14:40:36;99603.97;;;1.12;78.07
77279;BME280;66332;50.436;15.378;2023-02-15T14:45:57;99598.59;;;1.01;77.53
77279;BME280;66332;50.436;15.378;2023-02-15T14:50:46;99595.97;;;1.17;77.61
77279;BME280;66332;50.436;15.378;2023-02-15T14:55:37;99589.13;;;1.00;78.23
77279;BME280;66332;50.436;15.378;2023-02-15T15:00:38;99593.31;;;0.86;79.28
77279;BME280;66332;50.436;15.378;2023-02-15T15:15:00;99581.22;;;0.71;78.80
77279;BME280;66332;50.436;15.378;2023-02-15T15:29:39;99578.03;;;0.98;78.58
77279;BME280;66332;50.436;15.378;2023-02-15T15:34:46;99586.31;;;0.88;79.17
77279;BME280;66332;50.436;15.378;2023-02-15T15:49:42;99578.19;;;0.79;79.77
77279;BME280;66332;50.436;15.378;2023-02-15T15:54:25;99586.88;;;0.94;78.98
77279;BME280;66332;50.436;15.378;2023-02-15T15:59:15;99558.75;;;0.56;79.19
77279;BME280;66332;50.436;15.378;2023-02-15T16:03:59;99572.53;;;0.72;79.94
77279;BME280;66332;50.436;15.378;2023-02-15T16:08:40;99563.94;;;0.72;79.42
77279;BME280;66332;50.436;15.378;2023-02-15T16:13:21;99569.78;;;0.75;78.62
77279;BME280;66332;50.436;15.378;2023-02-15T16:18:03;99559.16;;;0.64;79.04
77279;BME280;66332;50.436;15.378;2023-02-15T16:22:53;99567.34;;;0.56;79.45
77279;BME280;66332;50.436;15.378;2023-02-15T16:27:39;99572.75;;;0.36;80.67
77279;BME280;66332;50.436;15.378;2023-02-15T16:32:24;99573.97;;;0.62;79.16
77279;BME280;66332;50.436;15.378;2023-02-15T16:37:25;99577.38;;;1.99;88.33
77279;BME280;66332;50.436;15.378;2023-02-15T16:42:08;99567.03;;;1.24;77.10
77279;BME280;66332;50.436;15.378;2023-02-15T16:46:54;99572.03;;;0.50;78.94
77279;BME280;66332;50.436;15.378;2023-02-15T16:51:35;99565.34;;;0.45;78.70
77279;BME280;66332;50.436;15.378;2023-02-15T16:56:28;99547.38;;;0.42;78.50
77279;BME280;66332;50.436;15.378;2023-02-15T17:01:14;99545.66;;;0.43;78.64
77279;BME280;66332;50.436;15.378;2023-02-15T17:05:56;99553.22;;;0.30;78.00
77279;BME280;66332;50.436;15.378;2023-02-15T17:10:40;99559.69;;;0.06;79.04
77279;BME280;66332;50.436;15.378;2023-02-15T17:15:36;99563.47;;;0.16;80.21
77279;BME280;66332;50.436;15.378;2023-02-15T17:20:19;99547.84;;;0.02;79.07
77279;BME280;66332;50.436;15.378;2023-02-15T17:25:04;99548.81;;;-0.17;80.96
77279;BME280;66332;50.436;15.378;2023-02-15T17:29:49;99558.00;;;-0.29;81.28
77279;BME280;66332;50.436;15.378;2023-02-15T17:34:51;99561.78;;;-0.18;81.25
77279;BME280;66332;50.436;15.378;2023-02-15T17:39:38;99552.38;;;-0.37;81.10
77279;BME280;66332;50.436;15.378;2023-02-15T17:44:20;99549.84;;;-0.54;82.21
77279;BME280;66332;50.436;15.378;2023-02-15T17:49:02;99544.81;;;-0.75;83.21
77279;BME280;66332;50.436;15.378;2023-02-15T17:53:44;99542.59;;;-0.82;83.42
77279;BME280;66332;50.436;15.378;2023-02-15T17:58:43;99545.78;;;-0.95;84.09
77279;BME280;66332;50.436;15.378;2023-02-15T18:03:49;99541.31;;;-0.91;83.28
77279;BME280;66332;50.436;15.378;2023-02-15T18:08:47;99533.47;;;-1.07;85.37
77279;BME280;66332;50.436;15.378;2023-02-15T18:13:47;99522.59;;;-1.31;85.37
77279;BME280;66332;50.436;15.378;2023-02-15T18:18:28;99524.34;;;-1.50;85.77
77279;BME280;66332;50.436;15.378;2023-02-15T18:23:13;99530.59;;;-1.37;85.43
77279;BME280;66332;50.436;15.378;2023-02-15T18:27:54;99521.03;;;-1.35;84.82
77279;BME280;66332;50.436;15.378;2023-02-15T18:32:36;99524.53;;;-1.36;84.95
77279;BME280;66332;50.436;15.378;2023-02-15T18:37:20;99514.63;;;-1.26;85.22
77279;BME280;66332;50.436;15.378;2023-02-15T18:42:27;99512.81;;;-1.24;84.91
77279;BME280;66332;50.436;15.378;2023-02-15T18:47:09;99532.19;;;-0.98;83.64
77279;BME280;66332;50.436;15.378;2023-02-15T18:51:51;99532.34;;;-1.01;82.76
77279;BME280;66332;50.436;15.378;2023-02-15T18:56:33;99520.50;;;-1.42;82.82
77279;BME280;66332;50.436;15.378;2023-02-15T19:01:18;99524.25;;;-1.30;83.34
77279;BME280;66332;50.436;15.378;2023-02-15T19:06:11;99535.16;;;-1.42;83.71
77279;BME280;66332;50.436;15.378;2023-02-15T19:10:54;99537.59;;;-1.39;83.69
77279;BME280;66332;50.436;15.378;2023-02-15T19:15:36;99533.06;;;-1.53;83.84
77279;BME280;66332;50.436;15.378;2023-02-15T19:25:02;99507.97;;;-1.68;83.58
77279;BME280;66332;50.436;15.378;2023-02-15T19:29:44;99517.59;;;-1.91;84.47
77279;BME280;66332;50.436;15.378;2023-02-15T19:34:26;99487.09;;;-2.00;83.82
77279;BME280;66332;50.436;15.378;2023-02-15T19:39:29;99509.22;;;-1.77;83.10
77279;BME280;66332;50.436;15.378;2023-02-15T19:44:15;99516.63;;;-1.69;83.13
77279;BME280;66332;50.436;15.378;2023-02-15T19:48:57;99497.13;;;-2.13;83.87
77279;BME280;66332;50.436;15.378;2023-02-15T19:53:38;99494.19;;;-2.05;84.21
77279;BME280;66332;50.436;15.378;2023-02-15T19:58:20;99509.44;;;-1.81;83.35
77279;BME280;66332;50.436;15.378;2023-02-15T20:03:02;99511.38;;;-1.87;84.69
77279;BME280;66332;50.436;15.378;2023-02-15T20:07:46;99509.78;;;-1.89;83.88
77279;BME280;66332;50.436;15.378;2023-02-15T20:12:27;99505.53;;;-2.09;82.96
77279;BME280;66332;50.436;15.378;2023-02-15T20:17:09;99493.69;;;-2.13;82.60
77279;BME280;66332;50.436;15.378;2023-02-15T20:21:50;99507.41;;;-1.75;83.49
77279;BME280;66332;50.436;15.378;2023-02-15T20:26:34;99492.25;;;-2.00;85.46
77279;BME280;66332;50.436;15.378;2023-02-15T20:31:17;99479.78;;;-2.09;84.02
77279;BME280;66332;50.436;15.378;2023-02-15T20:35:59;99497.31;;;-2.17;84.64
77279;BME280;66332;50.436;15.378;2023-02-15T20:40:43;99503.09;;;-2.12;84.20
77279;BME280;66332;50.436;15.378;2023-02-15T20:45:42;99499.44;;;-2.27;84.28
77279;BME280;66332;50.436;15.378;2023-02-15T20:50:29;99482.59;;;-2.34;83.97
77279;BME280;66332;50.436;15.378;2023-02-15T20:55:17;99498.06;;;-2.34;84.61
77279;BME280;66332;50.436;15.378;2023-02-15T20:59:59;99488.44;;;-2.31;84.57
77279;BME280;66332;50.436;15.378;2023-02-15T21:04:40;99479.66;;;-2.45;83.62
77279;BME280;66332;50.436;15.378;2023-02-15T21:09:21;99467.88;;;-2.51;83.16
77279;BME280;66332;50.436;15.378;2023-02-15T21:14:03;99465.84;;;-2.84;84.42
77279;BME280;66332;50.436;15.378;2023-02-15T21:18:44;99436.13;;;-2.70;83.95
77279;BME280;66332;50.436;15.378;2023-02-15T21:23:33;99449.13;;;-2.73;84.76
77279;BME280;66332;50.436;15.378;2023-02-15T21:28:21;99432.44;;;-3.06;85.89
77279;BME280;66332;50.436;15.378;2023-02-15T21:33:02;99414.19;;;-3.00;86.02
77279;BME280;66332;50.436;15.378;2023-02-15T21:37:45;99449.13;;;-2.73;86.54
77279;BME280;66332;50.436;15.378;2023-02-15T21:42:27;99442.25;;;-2.54;84.62
77279;BME280;66332;50.436;15.378;2023-02-15T21:47:30;99430.44;;;-2.58;84.05
77279;BME280;66332;50.436;15.378;2023-02-15T21:52:29;99436.34;;;-2.56;82.67
77279;BME280;66332;50.436;15.378;2023-02-15T21:57:12;99423.91;;;-2.86;84.36
77279;BME280;66332;50.436;15.378;2023-02-15T22:01:54;99427.34;;;-2.87;85.22
77279;BME280;66332;50.436;15.378;2023-02-15T22:06:35;99431.41;;;-2.81;84.76
77279;BME280;66332;50.436;15.378;2023-02-15T22:11:19;99422.09;;;-2.84;83.37
77279;BME280;66332;50.436;15.378;2023-02-15T22:16:02;99437.91;;;-2.72;82.65
77279;BME280;66332;50.436;15.378;2023-02-15T22:20:43;99432.91;;;-2.75;82.12
77279;BME280;66332;50.436;15.378;2023-02-15T22:25:25;99447.28;;;-2.71;82.75
77279;BME280;66332;50.436;15.378;2023-02-15T22:30:32;99436.69;;;-2.84;83.14
77279;BME280;66332;50.436;15.378;2023-02-15T22:35:20;99440.88;;;-2.82;83.92
77279;BME280;66332;50.436;15.378;2023-02-15T22:40:01;99449.50;;;-2.83;82.89
77279;BME280;66332;50.436;15.378;2023-02-15T22:44:42;99443.56;;;-3.05;83.65
77279;BME280;66332;50.436;15.378;2023-02-15T22:49:23;99447.69;;;-2.81;82.50
77279;BME280;66332;50.436;15.378;2023-02-15T22:54:04;99439.19;;;-3.24;83.07
